Delphos, OH (45833)

7:29 PM EDT on August 24, 2016 (GMT -0400)
2.3 MI. ESE Delphos | | Change Station
Active Advisory: Tornado Watch

Elev 778 ft 40.83 °N, 84.30 °W | Updated 12 minutes ago

Mostly Cloudy
Mostly Cloudy
77.0 °F
Feels Like 78 °F
N
7.8
Wind Variable Wind from NNE

Today
High -- | Low -- °F
--% Chance of Precip.
Yesterday
High -- | Low -- °F
Precip. -- in
Pressure 30.01 in
Visibility 10.0 miles
Clouds Mostly Cloudy 5500 ft
Heat Index 78 °F
Dew Point 74 °F
Humidity 89%
Rainfall 0.05 in
Snow Depth Not available.
6:56 AM 8:21 PM
Waning Gibbous, 52% visible
METAR KAOH 242253Z AUTO 17011KT 10SM BKN055 26/23 A3002 RMK AO2 SLP160 T02560233
Pressure 30.01 in
Visibility 10.0 miles
Clouds Mostly Cloudy 5500 ft
Heat Index 78 °F
Dew Point 74 °F
Humidity 89%
Rainfall 0.05 in
Snow Depth Not available.
6:56 AM 8:21 PM
Waning Gibbous, 52% visible
METAR KAOH 242253Z AUTO 17011KT 10SM BKN055 26/23 A3002 RMK AO2 SLP160 T02560233

10-Day Weather Forecast

Almanac

Astronomy

Aug. 24, 2016 Rise Set
Actual Time
Civil Twilight
Nautical Twilight
Astronomical Twilight
Moon
Length of Visible Light
Length of Day
Tomorrow will be .
, % of the Moon is Illuminated

Today's Extremes

State Highs State Lows

Community

WunderPhotos

Upload Photos

1,934,731 photos uploaded!

WunderBlog® & News

Nearby

Air Quality

  Air Quality AQ Index Pollutant
Not available.

Snow Depth

Station Depth Elevation

Earthquake Activity

City Distance Mag. Time & Date
Minimum magnitude displayed is 2.5.

Coastal Water Temperatures

Place Temperature

Stations

Nearby Weather Stations

Station Location Temp. Windchill Dew Point Humidity Wind Precip. Elev Updated Type
                   

Watches & Warnings

Tornado Watch
Issued: 7:24 PM EDT Aug. 24, 2016 – National Weather Service

Tornado Watch 454 remains in effect until 900 PM EDT for the
following locations

OH
. Ohio counties included are

Allen Darke Defiance
Fulton Henry Mercer
Paulding Putnam Van Wert
Williams